map of GED home
GED - Airport
Location
City:  Georgetown, Delaware, United States
Name:Delaware Coastal Airport
ICAO:KGED
IATA:GED
FAA LID:GED

Details
Type:Airport (Airfield)
Use:Public/Civil
Latitude:3841'16"N (38.687639)
Longitude:7521'33"W (-75.359305)
Datum:WGS 1984
Elevation:53 ft (16 m)
Variation:11.64W (WMM2015v2 magnetic declination)
0.03 annual change
Runways:2
Longest:5500 × 150 ft (1676 × 45.5 m), paved

Time
Time Zone:UTC-5 (DST-4)
Local Time:

Weather
METAR:KGED 041415Z AUTO 04003KT 4SM BR SCT001 04/02 A3011 RMK AO2 T00390022

Related Locations
Nearby:
Farthest:YAUG: 11783 mi / 18963 km
Augusta [Augusta Airport], WA, AU

Find:

   beyond  
but within

Other Information
Maps:
NOTAMs:
Links:
Sources:

  
  • flag of United States
  • flag of Delaware
  

Sectional Chart

Flight Planning
at skyvector.com

Satellite Image

Google Maps Satellite view

 

Copyright © 2004-2019 Karl L. Swartz. All rights reserved.
The Great Circle Mapper name and logo are trademarks of the Great Circle Mapper.
All other trademarks mentioned herein belong to their respective owners.
Please see credits for attibutions and further copyright information.

  Follow gcmap on Facebook Follow gcmap on Twitter GCmap on LinkedIn

hCard Microformat

Geo Microformat